This is the latest recevied weather packets stored in our database for station/object K8ZAS. If no packets are shown the sender has not sent any weather packets the latest 10 day(s).
| Time | Temp. | Humidity | Pressure | Rain* | Wind** | Luminosity | Snow |
|---|---|---|---|---|---|---|---|
| 1778136618 | 6.11° C | 61% | 1013.1 hPa | 0 mm | - | 0 W/m² | - |
| 1778136018 | 6.11° C | 59% | 1013 hPa | 0 mm | - | 0 W/m² | - |
| 1778134219 | 6.11° C | 63% | 1013.1 hPa | 0 mm | - | 0 W/m² | - |
| 1778131217 | 6.67° C | 59% | 1013 hPa | 0 mm | - | 0 W/m² | - |
| 1778127018 | 9.44° C | 50% | 1012.8 hPa | 0 mm | - | 0 W/m² | - |
| 1778121020 | 12.22° C | 34% | 1011.5 hPa | 0 mm | - | 2 W/m² | - |
| 1778120420 | 12.78° C | 31% | 1011.6 hPa | 0 mm | - | 6 W/m² | - |
| 1778119837 | 13.89° C | 29% | 1011.6 hPa | 0 mm | - | 13 W/m² | - |
| 1778118617 | 14.44° C | 25% | 1011.5 hPa | 0 mm | - | 32 W/m² | - |
| 1778114419 | 14.44° C | 25% | 1011.8 hPa | 0 mm | - | 77 W/m² | - |
| 1778113219 | 14.44° C | 24% | 1011.8 hPa | 0 mm | - | 107 W/m² | - |
| 1778110837 | 15° C | 24% | 1012.1 hPa | 0 mm | - | 441 W/m² | - |
| 1778107218 | 13.89° C | 25% | 1012.9 hPa | 0 mm | - | 645 W/m² | - |
| 1778104839 | 13.89° C | 26% | 1013.4 hPa | 0 mm | - | 765 W/m² | - |
| 1778099430 | 11.11° C | 29% | 1015 hPa | 0 mm | - | 962 W/m² | - |
| 1778098621 | - | - | - | 0 mm | - | - | - |
| 1778095539 | 9.44° C | 33% | 1015.5 hPa | 0 mm | - | 1020 W/m² | - |
| 1778094319 | 9.44° C | 34% | 1016 hPa | 0 mm | - | 1022 W/m² | - |
| 1778093116 | 8.89° C | 39% | 1016.7 hPa | 0 mm | - | 1018 W/m² | - |
| 1778092517 | 8.33° C | 41% | 1017 hPa | 0 mm | - | 1012 W/m² | - |
| 1778091940 | 7.78° C | 44% | 1017.3 hPa | 0 mm | - | 1006 W/m² | - |
| 1778087118 | 5° C | 51% | 1018.2 hPa | 0 mm | - | 893 W/m² | - |
| 1778084719 | 3.89° C | 66% | 1018.9 hPa | 0 mm | - | 621 W/m² | - |
| 1778070317 | -3.89° C | 93% | 1017.8 hPa | 0 mm | - | 16 W/m² | - |
| 1778069717 | -3.89° C | 93% | 1017.7 hPa | 0 mm | - | 9 W/m² | - |
* Rain latest hour (hover to see other rain measurements)
** Current wind speed in m/s (hover to see current wind gust speed)